sensor_id;sensor_type;location;lat;lon;timestamp;pressure;altitude;pressure_sealevel;temperature;humidity
63901;BME280;50538;53.482;10.294;2023-08-21T00:07:31;101769.53;;;18.94;86.91
63901;BME280;50538;53.482;10.294;2023-08-21T00:17:31;101774.75;;;18.74;87.05
63901;BME280;50538;53.482;10.294;2023-08-21T00:27:33;101770.91;;;18.62;87.36
63901;BME280;50538;53.482;10.294;2023-08-21T00:37:33;101778.06;;;18.48;87.22
63901;BME280;50538;53.482;10.294;2023-08-21T00:47:34;101771.50;;;18.36;87.90
63901;BME280;50538;53.482;10.294;2023-08-21T00:57:36;101766.34;;;18.20;87.50
63901;BME280;50538;53.482;10.294;2023-08-21T01:07:46;101769.72;;;18.07;88.60
63901;BME280;50538;53.482;10.294;2023-08-21T01:17:50;101770.03;;;17.98;87.25
63901;BME280;50538;53.482;10.294;2023-08-21T01:27:51;101772.19;;;17.88;87.05
63901;BME280;50538;53.482;10.294;2023-08-21T01:37:52;101779.06;;;17.75;88.03
63901;BME280;50538;53.482;10.294;2023-08-21T01:47:53;101779.25;;;17.59;88.21
63901;BME280;50538;53.482;10.294;2023-08-21T01:57:53;101783.06;;;17.50;88.28
63901;BME280;50538;53.482;10.294;2023-08-21T02:07:53;101779.84;;;17.40;88.03
63901;BME280;50538;53.482;10.294;2023-08-21T02:17:53;101774.44;;;17.25;89.47
63901;BME280;50538;53.482;10.294;2023-08-21T02:27:54;101776.91;;;17.12;89.20
63901;BME280;50538;53.482;10.294;2023-08-21T02:37:54;101784.22;;;17.03;89.66
63901;BME280;50538;53.482;10.294;2023-08-21T02:47:55;101781.59;;;16.95;89.02
63901;BME280;50538;53.482;10.294;2023-08-21T02:57:55;101786.00;;;16.88;88.75
63901;BME280;50538;53.482;10.294;2023-08-21T03:07:56;101790.34;;;16.74;90.33
63901;BME280;50538;53.482;10.294;2023-08-21T03:17:56;101795.59;;;16.68;88.96
63901;BME280;50538;53.482;10.294;2023-08-21T03:27:56;101802.69;;;16.61;89.94
63901;BME280;50538;53.482;10.294;2023-08-21T03:37:57;101796.03;;;16.57;90.61
63901;BME280;50538;53.482;10.294;2023-08-21T03:47:57;101804.94;;;16.49;91.03
63901;BME280;50538;53.482;10.294;2023-08-21T03:57:57;101804.81;;;16.42;91.54
63901;BME280;50538;53.482;10.294;2023-08-21T04:07:58;101806.38;;;16.37;90.59
63901;BME280;50538;53.482;10.294;2023-08-21T04:17:58;101813.28;;;16.31;91.12
63901;BME280;50538;53.482;10.294;2023-08-21T04:27:58;101810.97;;;16.28;91.72
63901;BME280;50538;53.482;10.294;2023-08-21T04:37:59;101809.31;;;16.27;91.87
63901;BME280;50538;53.482;10.294;2023-08-21T04:47:59;101811.81;;;16.29;92.31
63901;BME280;50538;53.482;10.294;2023-08-21T04:58:00;101822.97;;;16.32;91.61
63901;BME280;50538;53.482;10.294;2023-08-21T05:08:00;101820.44;;;16.39;93.67
63901;BME280;50538;53.482;10.294;2023-08-21T05:18:00;101827.06;;;16.51;98.66
63901;BME280;50538;53.482;10.294;2023-08-21T05:28:01;101839.53;;;16.67;100.00
63901;BME280;50538;53.482;10.294;2023-08-21T05:38:03;101835.97;;;16.89;100.00
63901;BME280;50538;53.482;10.294;2023-08-21T05:48:03;101833.97;;;17.29;100.00
63901;BME280;50538;53.482;10.294;2023-08-21T05:58:04;101834.09;;;17.79;100.00
63901;BME280;50538;53.482;10.294;2023-08-21T06:08:04;101838.44;;;18.31;100.00
63901;BME280;50538;53.482;10.294;2023-08-21T06:18:04;101844.38;;;18.84;100.00
63901;BME280;50538;53.482;10.294;2023-08-21T06:28:05;101844.59;;;19.32;100.00
63901;BME280;50538;53.482;10.294;2023-08-21T06:38:05;101847.16;;;19.74;98.88
63901;BME280;50538;53.482;10.294;2023-08-21T06:48:06;101861.72;;;20.21;92.62
63901;BME280;50538;53.482;10.294;2023-08-21T06:58:06;101867.81;;;20.56;91.04
63901;BME280;50538;53.482;10.294;2023-08-21T07:08:07;101864.97;;;21.04;88.37
63901;BME280;50538;53.482;10.294;2023-08-21T07:18:07;101859.81;;;21.42;86.75
63901;BME280;50538;53.482;10.294;2023-08-21T07:28:08;101857.41;;;21.85;83.18
63901;BME280;50538;53.482;10.294;2023-08-21T07:38:10;101862.47;;;22.26;81.02
63901;BME280;50538;53.482;10.294;2023-08-21T07:48:11;101861.69;;;22.57;76.01
63901;BME280;50538;53.482;10.294;2023-08-21T07:58:12;101853.88;;;22.74;71.91
63901;BME280;50538;53.482;10.294;2023-08-21T08:08:13;101855.19;;;23.21;70.98
63901;BME280;50538;53.482;10.294;2023-08-21T08:18:14;101860.56;;;23.46;66.21
63901;BME280;50538;53.482;10.294;2023-08-21T08:28:14;101850.53;;;23.71;63.40
63901;BME280;50538;53.482;10.294;2023-08-21T08:38:14;101858.63;;;24.08;62.97
63901;BME280;50538;53.482;10.294;2023-08-21T08:48:15;101858.44;;;24.39;62.35
63901;BME280;50538;53.482;10.294;2023-08-21T08:58:16;101858.06;;;24.66;60.31
63901;BME280;50538;53.482;10.294;2023-08-21T09:08:17;101859.56;;;24.92;58.67
63901;BME280;50538;53.482;10.294;2023-08-21T09:18:17;101863.66;;;25.36;57.67
63901;BME280;50538;53.482;10.294;2023-08-21T09:28:19;101863.63;;;25.59;55.77
63901;BME280;50538;53.482;10.294;2023-08-21T09:38:22;101846.78;;;25.97;54.53
63901;BME280;50538;53.482;10.294;2023-08-21T09:48:24;101844.34;;;26.13;53.29
63901;BME280;50538;53.482;10.294;2023-08-21T09:58:27;101844.06;;;26.26;52.56
63901;BME280;50538;53.482;10.294;2023-08-21T10:08:29;101833.97;;;26.38;50.81
63901;BME280;50538;53.482;10.294;2023-08-21T10:18:33;101841.31;;;26.38;51.29
63901;BME280;50538;53.482;10.294;2023-08-21T10:29:01;101833.53;;;26.58;51.18
63901;BME280;50538;53.482;10.294;2023-08-21T10:39:23;101832.06;;;26.84;49.35
63901;BME280;50538;53.482;10.294;2023-08-21T10:49:24;101836.84;;;26.93;48.27
63901;BME280;50538;53.482;10.294;2023-08-21T10:59:25;101839.66;;;26.98;49.90
63901;BME280;50538;53.482;10.294;2023-08-21T11:09:27;101832.63;;;27.36;47.68
63901;BME280;50538;53.482;10.294;2023-08-21T11:19:30;101832.13;;;27.78;47.23
63901;BME280;50538;53.482;10.294;2023-08-21T11:29:39;101834.09;;;27.82;44.35
63901;BME280;50538;53.482;10.294;2023-08-21T11:39:44;101840.09;;;27.62;50.30
63901;BME280;50538;53.482;10.294;2023-08-21T11:49:46;101841.81;;;27.90;45.09
63901;BME280;50538;53.482;10.294;2023-08-21T11:59:51;101840.09;;;27.62;46.36
63901;BME280;50538;53.482;10.294;2023-08-21T12:09:51;101829.59;;;27.71;47.31
63901;BME280;50538;53.482;10.294;2023-08-21T12:19:52;101842.19;;;27.99;43.88
63901;BME280;50538;53.482;10.294;2023-08-21T12:29:52;101828.78;;;27.54;43.72
63901;BME280;50538;53.482;10.294;2023-08-21T12:39:53;101821.56;;;27.86;42.17
63901;BME280;50538;53.482;10.294;2023-08-21T12:49:54;101821.28;;;27.83;40.94
63901;BME280;50538;53.482;10.294;2023-08-21T12:59:55;101824.38;;;27.91;38.00
63901;BME280;50538;53.482;10.294;2023-08-21T13:09:55;101820.59;;;28.19;37.63
63901;BME280;50538;53.482;10.294;2023-08-21T13:19:56;101815.28;;;28.29;40.02
63901;BME280;50538;53.482;10.294;2023-08-21T13:29:56;101807.19;;;28.40;36.59
63901;BME280;50538;53.482;10.294;2023-08-21T13:39:57;101803.28;;;28.62;40.24
63901;BME280;50538;53.482;10.294;2023-08-21T13:49:59;101798.50;;;28.80;42.60
63901;BME280;50538;53.482;10.294;2023-08-21T14:00:00;101794.16;;;28.84;45.14
63901;BME280;50538;53.482;10.294;2023-08-21T14:10:01;101793.94;;;28.90;42.45
63901;BME280;50538;53.482;10.294;2023-08-21T14:20:03;101793.50;;;28.99;36.67
63901;BME280;50538;53.482;10.294;2023-08-21T14:30:04;101785.03;;;29.05;40.29
63901;BME280;50538;53.482;10.294;2023-08-21T14:40:08;101772.97;;;29.48;39.60
63901;BME280;50538;53.482;10.294;2023-08-21T14:50:10;101774.13;;;29.52;36.71
63901;BME280;50538;53.482;10.294;2023-08-21T15:00:12;101761.53;;;29.61;36.16
63901;BME280;50538;53.482;10.294;2023-08-21T15:10:17;101764.34;;;29.77;33.69
63901;BME280;50538;53.482;10.294;2023-08-21T15:20:17;101750.06;;;29.70;32.99
63901;BME280;50538;53.482;10.294;2023-08-21T15:30:18;101747.13;;;29.97;32.46
63901;BME280;50538;53.482;10.294;2023-08-21T15:40:18;101721.69;;;30.77;31.08
63901;BME280;50538;53.482;10.294;2023-08-21T15:50:19;101717.31;;;30.81;30.68
63901;BME280;50538;53.482;10.294;2023-08-21T16:00:19;101709.34;;;30.90;32.74
63901;BME280;50538;53.482;10.294;2023-08-21T16:10:26;101711.44;;;31.23;29.90
63901;BME280;50538;53.482;10.294;2023-08-21T16:30:32;101709.13;;;32.97;27.85
63901;BME280;50538;53.482;10.294;2023-08-21T16:40:32;101696.91;;;34.72;30.10
63901;BME280;50538;53.482;10.294;2023-08-21T16:50:33;101703.38;;;36.31;24.35
63901;BME280;50538;53.482;10.294;2023-08-21T17:00:49;101685.78;;;36.04;24.22
63901;BME280;50538;53.482;10.294;2023-08-21T17:10:50;101688.09;;;35.53;26.83
63901;BME280;50538;53.482;10.294;2023-08-21T17:20:55;101696.97;;;37.23;28.42
63901;BME280;50538;53.482;10.294;2023-08-21T17:31:01;101688.81;;;37.27;29.36
63901;BME280;50538;53.482;10.294;2023-08-21T17:41:07;101685.88;;;37.06;30.77
63901;BME280;50538;53.482;10.294;2023-08-21T17:51:14;101691.34;;;35.91;33.77
63901;BME280;50538;53.482;10.294;2023-08-21T18:01:21;101701.19;;;33.14;37.57
63901;BME280;50538;53.482;10.294;2023-08-21T18:11:23;101695.97;;;30.73;42.63
63901;BME280;50538;53.482;10.294;2023-08-21T18:21:28;101692.53;;;28.92;45.24
63901;BME280;50538;53.482;10.294;2023-08-21T18:31:29;101709.81;;;27.53;49.66
63901;BME280;50538;53.482;10.294;2023-08-21T18:41:30;101704.09;;;26.39;52.00
63901;BME280;50538;53.482;10.294;2023-08-21T18:51:31;101706.03;;;25.41;55.14
63901;BME280;50538;53.482;10.294;2023-08-21T19:01:31;101704.78;;;24.50;59.02
63901;BME280;50538;53.482;10.294;2023-08-21T19:11:31;101707.78;;;23.77;59.52
63901;BME280;50538;53.482;10.294;2023-08-21T19:21:32;101707.41;;;23.19;61.69
63901;BME280;50538;53.482;10.294;2023-08-21T19:31:32;101723.94;;;22.67;63.41
63901;BME280;50538;53.482;10.294;2023-08-21T19:41:33;101715.38;;;22.14;65.06
63901;BME280;50538;53.482;10.294;2023-08-21T19:51:34;101714.00;;;21.60;67.04
63901;BME280;50538;53.482;10.294;2023-08-21T20:01:34;101715.41;;;21.25;68.09
63901;BME280;50538;53.482;10.294;2023-08-21T20:11:34;101710.88;;;20.86;68.34
63901;BME280;50538;53.482;10.294;2023-08-21T20:21:35;101719.81;;;20.40;70.30
63901;BME280;50538;53.482;10.294;2023-08-21T20:31:35;101716.22;;;20.13;71.14
63901;BME280;50538;53.482;10.294;2023-08-21T20:41:35;101713.00;;;19.76;72.44
63901;BME280;50538;53.482;10.294;2023-08-21T20:51:36;101722.41;;;19.39;73.01
63901;BME280;50538;53.482;10.294;2023-08-21T21:01:36;101726.59;;;19.14;74.27
63901;BME280;50538;53.482;10.294;2023-08-21T21:11:36;101723.97;;;18.93;74.55
63901;BME280;50538;53.482;10.294;2023-08-21T21:21:36;101719.47;;;18.72;74.97
63901;BME280;50538;53.482;10.294;2023-08-21T21:31:37;101702.34;;;18.51;75.39
63901;BME280;50538;53.482;10.294;2023-08-21T21:41:37;101720.13;;;18.31;75.51
63901;BME280;50538;53.482;10.294;2023-08-21T21:51:38;101703.16;;;18.09;76.51
63901;BME280;50538;53.482;10.294;2023-08-21T22:01:38;101719.00;;;17.98;76.27
63901;BME280;50538;53.482;10.294;2023-08-21T22:11:38;101724.59;;;17.81;76.12
63901;BME280;50538;53.482;10.294;2023-08-21T22:21:39;101705.63;;;17.68;77.20
63901;BME280;50538;53.482;10.294;2023-08-21T22:31:41;101685.31;;;17.44;78.25
63901;BME280;50538;53.482;10.294;2023-08-21T22:41:43;101682.81;;;17.13;79.38
63901;BME280;50538;53.482;10.294;2023-08-21T22:51:43;101683.16;;;16.96;79.73
63901;BME280;50538;53.482;10.294;2023-08-21T23:01:44;101670.78;;;16.80;80.64
63901;BME280;50538;53.482;10.294;2023-08-21T23:11:44;101660.41;;;16.77;80.27
63901;BME280;50538;53.482;10.294;2023-08-21T23:21:46;101653.38;;;16.76;80.70
63901;BME280;50538;53.482;10.294;2023-08-21T23:31:46;101643.47;;;16.62;81.27
63901;BME280;50538;53.482;10.294;2023-08-21T23:41:47;101651.41;;;16.55;80.25
63901;BME280;50538;53.482;10.294;2023-08-21T23:51:47;101641.59;;;16.47;81.27
